createdAt,value
2018-07-27T00:02:18.026Z,9.40
2018-07-27T00:04:46.341Z,10.03
2018-07-27T00:07:14.594Z,8.97
2018-07-27T00:09:42.773Z,8.90
2018-07-27T00:12:10.990Z,8.67
2018-07-27T00:14:39.217Z,9.53
2018-07-27T00:17:07.394Z,10.03
2018-07-27T00:19:35.566Z,47.20
2018-07-27T00:22:03.795Z,15.13
2018-07-27T00:24:32.009Z,11.43
2018-07-27T00:27:00.212Z,9.90
2018-07-27T00:29:28.425Z,8.53
2018-07-27T00:31:56.669Z,8.97
2018-07-27T00:34:24.869Z,10.50
2018-07-27T00:36:53.165Z,9.50
2018-07-27T00:39:21.338Z,9.13
2018-07-27T00:41:49.546Z,8.30
2018-07-27T00:44:17.717Z,8.80
2018-07-27T00:46:45.983Z,9.00
2018-07-27T00:49:14.153Z,9.50
2018-07-27T00:51:42.339Z,10.10
2018-07-27T00:54:10.506Z,9.50
2018-07-27T00:56:38.674Z,8.90
2018-07-27T00:59:06.843Z,8.60
2018-07-27T01:01:35.082Z,8.40
2018-07-27T01:04:03.346Z,10.40
2018-07-27T01:06:31.570Z,31.80
2018-07-27T01:08:59.782Z,27.10
2018-07-27T01:11:28.076Z,10.23
2018-07-27T01:13:56.294Z,8.30
2018-07-27T01:16:24.520Z,9.80
2018-07-27T01:18:53.398Z,9.63
2018-07-27T01:21:21.634Z,10.03
2018-07-27T01:23:49.861Z,9.40
2018-07-27T01:26:18.086Z,9.37
2018-07-27T01:28:46.397Z,9.53
2018-07-27T01:31:14.637Z,10.40
2018-07-27T01:33:42.918Z,10.20
2018-07-27T01:36:11.124Z,9.33
2018-07-27T01:38:39.342Z,9.90
2018-07-27T01:41:08.114Z,10.30
2018-07-27T01:43:36.382Z,9.57
2018-07-27T01:46:04.634Z,10.50
2018-07-27T01:48:32.831Z,9.40
2018-07-27T01:51:01.079Z,10.20
2018-07-27T01:53:29.265Z,9.57
2018-07-27T01:55:57.602Z,8.77
2018-07-27T01:58:25.914Z,9.50
2018-07-27T02:00:55.164Z,10.00
2018-07-27T02:03:23.381Z,9.23
2018-07-27T02:05:51.633Z,9.63
2018-07-27T02:08:19.849Z,9.87
2018-07-27T02:10:48.106Z,10.20
2018-07-27T02:13:16.314Z,8.80
2018-07-27T02:15:44.541Z,9.60
2018-07-27T02:18:12.804Z,9.30
2018-07-27T02:20:41.078Z,10.30
2018-07-27T02:23:09.262Z,9.87
2018-07-27T02:25:37.489Z,8.97
2018-07-27T02:28:05.733Z,9.83
2018-07-27T02:30:34.074Z,10.40
2018-07-27T02:33:02.239Z,9.30
2018-07-27T02:35:30.432Z,9.50
2018-07-27T02:37:58.624Z,10.07
2018-07-27T02:40:26.825Z,9.90
2018-07-27T02:42:55.016Z,10.27
2018-07-27T02:45:23.226Z,8.70
2018-07-27T02:47:51.421Z,10.57
2018-07-27T02:50:20.558Z,10.53
2018-07-27T02:52:48.755Z,9.23
2018-07-27T02:55:17.097Z,10.63
2018-07-27T02:57:45.438Z,10.17
2018-07-27T03:00:13.654Z,9.77
2018-07-27T03:02:41.846Z,10.30
2018-07-27T03:05:10.047Z,10.10
2018-07-27T03:07:38.278Z,10.27
2018-07-27T03:10:07.014Z,10.20
2018-07-27T03:12:35.232Z,9.43
2018-07-27T03:15:03.565Z,9.60
2018-07-27T03:17:31.784Z,9.80
2018-07-27T03:20:00.015Z,8.90
2018-07-27T03:22:28.210Z,11.30
2018-07-27T03:24:56.415Z,10.17
2018-07-27T03:27:24.669Z,9.83
2018-07-27T03:29:52.953Z,9.53
2018-07-27T03:32:21.192Z,10.97
2018-07-27T03:34:49.132Z,10.47
2018-07-27T03:37:17.335Z,10.73
2018-07-27T03:39:45.526Z,10.73
2018-07-27T03:42:13.779Z,11.83
2018-07-27T03:44:41.885Z,10.80
2018-07-27T03:47:10.090Z,9.37
2018-07-27T03:49:38.325Z,10.00
2018-07-27T03:52:06.494Z,11.70
2018-07-27T03:54:34.681Z,11.03
2018-07-27T03:59:37.583Z,11.07
2018-07-27T04:02:05.742Z,11.43
2018-07-27T04:04:33.953Z,11.27
2018-07-27T04:07:02.173Z,10.60
2018-07-27T04:09:30.356Z,10.13
2018-07-27T04:11:58.569Z,11.30
2018-07-27T04:14:27.008Z,10.47
2018-07-27T04:16:55.194Z,11.17
2018-07-27T04:19:23.420Z,10.77
2018-07-27T04:21:51.584Z,11.77
2018-07-27T04:24:19.854Z,11.73
2018-07-27T04:26:48.034Z,10.73
2018-07-27T04:29:16.221Z,10.63
2018-07-27T04:31:44.443Z,10.33
2018-07-27T04:34:12.653Z,11.03
2018-07-27T04:36:40.849Z,10.70
2018-07-27T04:39:10.470Z,11.33
2018-07-27T04:41:38.689Z,10.90
2018-07-27T04:44:07.068Z,11.13
2018-07-27T04:46:35.379Z,10.67
2018-07-27T04:49:03.592Z,10.70
2018-07-27T04:51:31.870Z,10.80
2018-07-27T04:54:00.045Z,10.93
2018-07-27T04:56:28.266Z,10.10
2018-07-27T04:58:56.402Z,12.77
2018-07-27T05:01:24.653Z,11.17
2018-07-27T05:03:53.294Z,9.90
2018-07-27T05:06:21.474Z,10.93
2018-07-27T05:08:55.013Z,10.60
2018-07-27T05:11:23.205Z,11.63
2018-07-27T05:13:51.433Z,10.17
2018-07-27T05:16:19.690Z,11.03
2018-07-27T05:18:47.890Z,12.10
2018-07-27T05:21:16.131Z,11.70
2018-07-27T05:23:44.310Z,11.50
2018-07-27T05:26:12.536Z,10.70
2018-07-27T05:28:41.526Z,11.83
2018-07-27T05:31:09.738Z,12.67
2018-07-27T05:33:37.913Z,10.67
2018-07-27T05:36:06.210Z,12.90
2018-07-27T05:38:34.426Z,11.53
2018-07-27T05:41:02.611Z,12.03
2018-07-27T05:43:30.790Z,11.07
2018-07-27T05:45:59.032Z,11.70
2018-07-27T05:48:27.219Z,12.17
2018-07-27T05:50:55.464Z,10.90
2018-07-27T05:53:23.630Z,11.70
2018-07-27T05:55:51.870Z,12.03
2018-07-27T05:58:20.164Z,11.20
2018-07-27T06:00:48.537Z,10.97
2018-07-27T06:03:16.694Z,10.83
2018-07-27T06:05:44.923Z,10.70
2018-07-27T06:08:13.148Z,11.10
2018-07-27T06:10:41.378Z,10.70
2018-07-27T06:13:09.626Z,11.63
2018-07-27T06:15:37.801Z,10.47
2018-07-27T06:18:06.184Z,11.77
2018-07-27T06:20:34.515Z,9.43
2018-07-27T06:23:02.750Z,10.80
2018-07-27T06:25:31.010Z,9.80
2018-07-27T06:27:59.397Z,10.03
2018-07-27T06:30:27.621Z,9.40
2018-07-27T06:32:55.830Z,9.30
2018-07-27T06:35:24.063Z,10.17
2018-07-27T06:37:52.297Z,9.70
2018-07-27T06:40:20.549Z,8.93
2018-07-27T06:42:48.820Z,9.10
2018-07-27T06:45:17.056Z,9.43
2018-07-27T06:47:45.193Z,9.30
2018-07-27T06:50:13.370Z,9.90
2018-07-27T06:52:41.589Z,9.53
2018-07-27T06:55:09.762Z,9.23
2018-07-27T06:57:37.947Z,9.03
2018-07-27T07:00:06.615Z,9.53
2018-07-27T07:02:34.794Z,9.17
2018-07-27T07:05:03.381Z,9.43
2018-07-27T07:07:31.750Z,8.77
2018-07-27T07:09:59.964Z,8.17
2018-07-27T07:12:28.221Z,8.40
2018-07-27T07:14:56.425Z,9.73
2018-07-27T07:17:24.699Z,8.67
2018-07-27T07:19:54.601Z,8.03
2018-07-27T07:22:22.841Z,7.80
2018-07-27T07:24:51.053Z,7.83
2018-07-27T07:27:19.271Z,9.17
2018-07-27T07:29:47.472Z,8.23
2018-07-27T07:32:15.654Z,7.30
2018-07-27T07:34:44.132Z,8.47
2018-07-27T07:37:12.374Z,6.70
2018-07-27T07:39:40.522Z,6.87
2018-07-27T07:42:08.685Z,6.80
2018-07-27T07:44:36.910Z,6.53
2018-07-27T07:47:05.222Z,6.90
2018-07-27T07:49:33.410Z,7.00
2018-07-27T07:52:01.599Z,6.90
2018-07-27T07:54:29.561Z,6.97
2018-07-27T07:56:57.781Z,6.80
2018-07-27T07:59:26.001Z,6.87
2018-07-27T08:01:54.318Z,8.77
2018-07-27T08:04:22.562Z,8.43
2018-07-27T08:06:50.803Z,6.60
2018-07-27T08:09:19.008Z,6.87
2018-07-27T08:11:47.255Z,7.67
2018-07-27T08:14:15.562Z,5.70
2018-07-27T08:16:43.801Z,5.97
2018-07-27T08:19:12.035Z,5.87
2018-07-27T08:21:40.388Z,6.17
2018-07-27T08:24:08.624Z,6.20
2018-07-27T08:26:39.858Z,5.67
2018-07-27T08:29:09.890Z,5.97
2018-07-27T08:31:38.665Z,5.90
2018-07-27T08:34:07.082Z,5.43
2018-07-27T08:36:35.560Z,5.40
2018-07-27T08:39:06.189Z,4.97
2018-07-27T08:41:34.912Z,5.23
2018-07-27T08:44:03.228Z,5.97
2018-07-27T08:46:31.465Z,5.80
2018-07-27T08:48:59.666Z,5.43
2018-07-27T08:51:27.862Z,5.10
2018-07-27T08:53:56.346Z,5.20
2018-07-27T08:56:24.652Z,9.53
2018-07-27T08:58:53.719Z,5.40
2018-07-27T09:01:22.023Z,5.07
2018-07-27T09:03:50.329Z,4.57
2018-07-27T09:06:18.778Z,5.90
2018-07-27T09:08:47.364Z,4.90
2018-07-27T09:11:15.603Z,5.30
2018-07-27T09:13:43.805Z,4.47
2018-07-27T09:16:12.059Z,4.90
2018-07-27T09:18:40.326Z,5.00
2018-07-27T09:21:08.509Z,5.63
2018-07-27T09:23:36.783Z,4.63
2018-07-27T09:26:05.024Z,4.83
2018-07-27T09:28:33.254Z,4.60
2018-07-27T09:31:01.488Z,4.43
2018-07-27T09:33:29.802Z,4.27
2018-07-27T09:35:58.022Z,4.73
2018-07-27T09:38:26.265Z,5.00
2018-07-27T09:40:54.450Z,4.63
2018-07-27T09:43:22.694Z,4.97
2018-07-27T09:45:50.941Z,4.90
2018-07-27T09:48:19.172Z,5.57
2018-07-27T09:50:47.527Z,4.13
2018-07-27T09:53:16.094Z,4.53
2018-07-27T09:55:44.671Z,4.70
2018-07-27T09:58:12.949Z,5.07
2018-07-27T10:00:46.636Z,4.37
2018-07-27T10:03:14.853Z,4.73
2018-07-27T10:05:43.126Z,5.60
2018-07-27T10:08:11.382Z,5.07
2018-07-27T10:10:39.636Z,5.40
2018-07-27T10:13:08.742Z,4.97
2018-07-27T10:15:37.049Z,4.83
2018-07-27T10:18:05.701Z,4.90
2018-07-27T10:20:34.050Z,5.20
2018-07-27T10:23:02.346Z,7.23
2018-07-27T10:25:31.041Z,4.53
2018-07-27T10:27:59.105Z,4.97
2018-07-27T10:30:27.326Z,4.57
2018-07-27T10:32:55.590Z,5.33
2018-07-27T10:35:23.881Z,5.27
2018-07-27T10:37:52.394Z,4.80
2018-07-27T10:40:20.593Z,6.00
2018-07-27T10:42:48.800Z,5.00
2018-07-27T10:45:16.971Z,4.43
2018-07-27T10:47:45.156Z,4.13
2018-07-27T10:50:13.457Z,4.80
2018-07-27T10:52:41.616Z,5.20
2018-07-27T10:55:09.803Z,5.30
2018-07-27T10:57:38.549Z,5.07
2018-07-27T11:00:09.700Z,5.50
2018-07-27T11:02:38.095Z,4.83
2018-07-27T11:05:06.397Z,5.10
2018-07-27T11:07:34.602Z,4.93
2018-07-27T11:10:02.883Z,4.70
2018-07-27T11:12:31.141Z,4.60
2018-07-27T11:14:59.417Z,4.50
2018-07-27T11:17:27.831Z,4.30
2018-07-27T11:19:56.046Z,4.67
2018-07-27T11:22:24.322Z,4.83
2018-07-27T11:24:52.555Z,5.30
2018-07-27T11:27:20.772Z,5.00
2018-07-27T11:29:49.144Z,5.50
2018-07-27T11:32:17.406Z,4.47
2018-07-27T11:34:45.662Z,4.43
2018-07-27T11:37:13.919Z,4.03
2018-07-27T11:39:42.086Z,4.57
2018-07-27T11:42:10.573Z,4.73
2018-07-27T11:44:38.745Z,4.27
2018-07-27T11:47:07.184Z,4.43
2018-07-27T11:49:35.519Z,4.27
2018-07-27T11:52:03.743Z,4.37
2018-07-27T11:54:31.990Z,4.67
2018-07-27T11:57:00.332Z,5.37
2018-07-27T11:59:28.578Z,4.63
2018-07-27T12:01:57.765Z,5.53
2018-07-27T12:04:25.963Z,4.70
2018-07-27T12:06:54.165Z,5.70
2018-07-27T12:09:22.474Z,4.30
2018-07-27T12:11:50.689Z,4.90
2018-07-27T12:14:19.059Z,5.80
2018-07-27T12:16:47.394Z,4.67
2018-07-27T12:19:15.682Z,5.10
2018-07-27T12:21:44.093Z,4.80
2018-07-27T12:24:12.544Z,5.00
2018-07-27T12:26:40.826Z,5.17
2018-07-27T12:29:09.301Z,5.43
2018-07-27T12:31:37.615Z,5.53
2018-07-27T12:34:11.528Z,5.93
2018-07-27T12:36:39.729Z,5.40
2018-07-27T12:39:09.987Z,4.70
2018-07-27T12:41:39.157Z,5.40
2018-07-27T12:44:07.536Z,5.63
2018-07-27T12:46:36.012Z,5.07
2018-07-27T12:49:04.282Z,4.80
2018-07-27T12:51:32.496Z,5.47
2018-07-27T12:54:00.735Z,4.83
2018-07-27T12:56:29.286Z,4.90
2018-07-27T12:58:57.525Z,5.10
2018-07-27T13:01:25.865Z,5.07
2018-07-27T13:03:54.090Z,4.60
2018-07-27T13:06:22.342Z,5.00
2018-07-27T13:08:50.690Z,5.13
2018-07-27T13:11:18.920Z,5.57
2018-07-27T13:13:46.994Z,5.47
2018-07-27T13:16:15.211Z,5.23
2018-07-27T13:18:43.438Z,4.80
2018-07-27T13:21:11.697Z,4.80
2018-07-27T13:23:50.079Z,4.97
2018-07-27T13:28:46.598Z,4.80
2018-07-27T13:31:14.809Z,4.50
2018-07-27T13:37:17.603Z,5.10
2018-07-27T13:39:46.620Z,4.33
2018-07-27T13:42:16.104Z,4.47
2018-07-27T13:44:44.797Z,4.80
2018-07-27T13:47:13.536Z,4.30
2018-07-27T13:49:41.797Z,5.53
2018-07-27T13:52:10.057Z,4.57
2018-07-27T13:54:38.246Z,4.73
2018-07-27T13:57:06.457Z,5.23
2018-07-27T13:59:34.757Z,5.00
2018-07-27T14:02:02.937Z,5.00
2018-07-27T14:04:31.174Z,7.13
2018-07-27T14:07:00.808Z,5.30
2018-07-27T14:09:29.042Z,5.10
2018-07-27T14:11:57.273Z,4.93
2018-07-27T14:14:25.550Z,4.27
2018-07-27T14:16:53.714Z,5.40
2018-07-27T14:19:22.367Z,5.43
2018-07-27T14:21:51.138Z,5.03
2018-07-27T14:24:19.687Z,4.60
2018-07-27T14:26:47.934Z,4.97
2018-07-27T14:29:16.145Z,4.23
2018-07-27T14:31:44.397Z,4.17
2018-07-27T14:34:12.590Z,4.63
2018-07-27T14:36:40.805Z,4.50
2018-07-27T14:39:10.934Z,5.53
2018-07-27T14:41:39.209Z,4.00
2018-07-27T14:44:07.513Z,4.40
2018-07-27T14:46:42.250Z,4.73
2018-07-27T14:49:11.457Z,4.60
2018-07-27T14:51:40.341Z,4.77
2018-07-27T14:54:09.831Z,4.63
2018-07-27T14:56:38.466Z,5.03
2018-07-27T14:59:07.002Z,4.70
2018-07-27T15:01:36.043Z,5.00
2018-07-27T15:04:04.290Z,4.30
2018-07-27T15:06:32.469Z,4.50
2018-07-27T15:09:00.699Z,5.03
2018-07-27T15:11:28.834Z,4.60
2018-07-27T15:13:57.073Z,4.83
2018-07-27T15:16:25.432Z,4.70
2018-07-27T15:18:53.599Z,5.50
2018-07-27T15:21:21.849Z,4.57
2018-07-27T15:23:50.094Z,4.10
2018-07-27T15:26:18.341Z,4.23
2018-07-27T15:28:46.265Z,4.47
2018-07-27T15:31:14.522Z,4.07
2018-07-27T15:33:42.765Z,4.10
2018-07-27T15:36:11.070Z,5.17
2018-07-27T15:38:39.410Z,4.37
2018-07-27T15:41:07.687Z,4.37
2018-07-27T15:43:35.894Z,4.20
2018-07-27T15:46:04.106Z,4.03
2018-07-27T15:48:32.404Z,4.13
2018-07-27T15:51:00.497Z,4.80
2018-07-27T15:53:28.702Z,4.57
2018-07-27T15:55:56.975Z,4.10
2018-07-27T15:58:25.165Z,4.00
2018-07-27T16:00:53.445Z,4.53
2018-07-27T16:03:21.764Z,5.83
2018-07-27T16:05:49.983Z,3.93
2018-07-27T16:08:18.286Z,4.17
2018-07-27T16:10:46.482Z,4.30
2018-07-27T16:13:14.750Z,4.00
2018-07-27T16:15:43.309Z,4.10
2018-07-27T16:18:11.478Z,4.00
2018-07-27T16:20:39.722Z,4.50
2018-07-27T16:23:07.947Z,4.20
2018-07-27T16:25:36.119Z,4.00
2018-07-27T16:28:04.380Z,4.23
2018-07-27T16:30:32.572Z,4.20
2018-07-27T16:33:00.717Z,3.90
2018-07-27T16:35:28.921Z,4.67
2018-07-27T16:37:57.126Z,5.60
2018-07-27T16:40:25.334Z,4.43
2018-07-27T16:42:53.574Z,4.50
2018-07-27T16:45:21.830Z,4.17
2018-07-27T16:47:50.062Z,4.30
2018-07-27T16:50:18.305Z,4.50
2018-07-27T16:52:46.523Z,4.30
2018-07-27T16:55:14.753Z,4.60
2018-07-27T16:57:42.991Z,4.70
2018-07-27T17:00:11.268Z,4.30
2018-07-27T17:02:39.502Z,4.70
2018-07-27T17:05:07.990Z,5.10
2018-07-27T17:07:36.227Z,4.90
2018-07-27T17:10:05.284Z,5.00
2018-07-27T17:12:33.530Z,3.53
2018-07-27T17:15:01.699Z,4.30
2018-07-27T17:17:29.970Z,4.67
2018-07-27T17:19:58.215Z,4.37
2018-07-27T17:22:26.728Z,4.40
2018-07-27T17:24:55.415Z,4.47
2018-07-27T17:27:23.701Z,4.03
2018-07-27T17:29:52.454Z,4.57
2018-07-27T17:32:20.690Z,5.00
2018-07-27T17:34:49.381Z,4.50
2018-07-27T17:37:17.330Z,5.00
2018-07-27T17:39:45.665Z,3.73
2018-07-27T17:42:13.969Z,4.90
2018-07-27T17:44:42.393Z,5.07
2018-07-27T17:47:10.749Z,5.00
2018-07-27T17:49:39.784Z,4.20
2018-07-27T17:52:08.106Z,4.37
2018-07-27T17:54:36.373Z,5.53
2018-07-27T17:57:04.647Z,4.90
2018-07-27T17:59:32.889Z,4.77
2018-07-27T18:02:01.162Z,5.20
2018-07-27T18:04:29.478Z,4.90
2018-07-27T18:06:57.797Z,5.60
2018-07-27T18:09:26.035Z,5.30
2018-07-27T18:11:54.311Z,5.70
2018-07-27T18:14:22.658Z,4.63
2018-07-27T18:16:50.963Z,5.13
2018-07-27T18:19:19.565Z,5.60
2018-07-27T18:21:47.927Z,5.97
2018-07-27T18:24:16.213Z,5.07
2018-07-27T18:26:44.973Z,6.20
2018-07-27T18:29:13.261Z,5.53
2018-07-27T18:31:41.618Z,6.97
2018-07-27T18:34:09.901Z,6.80
2018-07-27T18:36:38.508Z,6.10
2018-07-27T18:39:08.803Z,6.43
2018-07-27T18:41:37.157Z,6.23
2018-07-27T18:44:05.498Z,6.00
2018-07-27T18:46:33.871Z,6.37
2018-07-27T18:49:02.145Z,6.43
2018-07-27T18:51:30.485Z,7.00
2018-07-27T18:53:58.799Z,6.60
2018-07-27T18:56:27.088Z,5.93
2018-07-27T18:58:55.334Z,6.50
2018-07-27T19:01:24.623Z,6.17
2018-07-27T19:03:53.017Z,6.73
2018-07-27T19:06:21.464Z,6.80
2018-07-27T19:08:50.178Z,6.80
2018-07-27T19:11:18.728Z,6.90
2018-07-27T19:13:47.122Z,7.20
2018-07-27T19:16:15.431Z,12.10
2018-07-27T19:18:43.772Z,11.87
2018-07-27T19:21:12.158Z,7.90
2018-07-27T19:23:40.450Z,10.00
2018-07-27T19:26:08.805Z,10.20
2018-07-27T19:28:37.722Z,7.90
2018-07-27T19:31:06.095Z,8.53
2018-07-27T19:33:34.490Z,8.40
2018-07-27T19:36:02.750Z,9.50
2018-07-27T19:38:30.978Z,8.70
2018-07-27T19:40:59.258Z,8.27
2018-07-27T19:43:27.678Z,8.10
2018-07-27T19:45:56.070Z,7.30
2018-07-27T19:48:24.435Z,8.60
2018-07-27T19:50:52.650Z,10.40
2018-07-27T19:53:21.598Z,8.97
2018-07-27T19:55:49.778Z,9.73
2018-07-27T19:58:18.115Z,7.47
2018-07-27T20:00:46.332Z,8.50
2018-07-27T20:03:14.619Z,8.17
2018-07-27T20:05:42.832Z,7.50
2018-07-27T20:08:11.088Z,9.60
2018-07-27T20:10:39.660Z,12.13
2018-07-27T20:13:07.929Z,9.87
2018-07-27T20:15:36.207Z,9.10
2018-07-27T20:18:04.507Z,9.37
2018-07-27T20:20:32.797Z,9.47
2018-07-27T20:23:01.110Z,8.70
2018-07-27T20:25:29.409Z,9.33
2018-07-27T20:27:57.776Z,9.50
2018-07-27T20:30:26.007Z,9.63
2018-07-27T20:32:54.214Z,10.07
2018-07-27T20:35:22.531Z,11.67
2018-07-27T20:37:50.800Z,9.57
2018-07-27T20:40:19.114Z,10.30
2018-07-27T20:42:48.323Z,8.07
2018-07-27T20:45:16.530Z,8.70
2018-07-27T20:47:44.778Z,8.87
2018-07-27T20:50:12.972Z,7.97
2018-07-27T20:52:41.233Z,12.43
2018-07-27T20:55:09.451Z,10.90
2018-07-27T20:57:37.727Z,9.03
2018-07-27T21:00:06.084Z,9.20
2018-07-27T21:02:34.434Z,9.07
2018-07-27T21:05:02.692Z,8.27
2018-07-27T21:07:30.884Z,8.73
2018-07-27T21:09:59.140Z,9.07
2018-07-27T21:12:27.390Z,8.57
2018-07-27T21:14:55.694Z,9.43
2018-07-27T21:17:23.969Z,10.13
2018-07-27T21:19:52.248Z,8.40
2018-07-27T21:22:20.507Z,10.00
2018-07-27T21:24:49.258Z,9.10
2018-07-27T21:27:17.498Z,7.97
2018-07-27T21:29:45.891Z,9.03
2018-07-27T21:32:14.157Z,9.50
2018-07-27T21:34:42.542Z,8.40
2018-07-27T21:37:10.802Z,9.07
2018-07-27T21:39:39.037Z,8.83
2018-07-27T21:42:07.372Z,9.60
2018-07-27T21:44:35.637Z,9.80
2018-07-27T21:47:04.097Z,9.43
2018-07-27T21:49:32.440Z,9.03
2018-07-27T21:52:00.667Z,9.17
2018-07-27T21:54:28.890Z,10.50
2018-07-27T21:56:57.160Z,10.77
2018-07-27T21:59:25.499Z,9.70
2018-07-27T22:01:53.745Z,10.43
2018-07-27T22:04:22.001Z,10.23
2018-07-27T22:06:50.164Z,9.57
2018-07-27T22:09:18.415Z,10.63
2018-07-27T22:11:46.726Z,10.40
2018-07-27T22:14:14.950Z,10.20
2018-07-27T22:16:43.143Z,10.07
2018-07-27T22:19:11.454Z,10.80
2018-07-27T22:21:39.467Z,10.37
2018-07-27T22:24:07.713Z,11.40
2018-07-27T22:26:35.942Z,10.70
2018-07-27T22:29:04.210Z,10.67
2018-07-27T22:31:32.428Z,11.37
2018-07-27T22:34:00.981Z,10.37
2018-07-27T22:36:29.237Z,9.77
2018-07-27T22:38:57.495Z,10.27
2018-07-27T22:41:25.924Z,11.40
2018-07-27T22:43:54.194Z,10.90
2018-07-27T22:46:22.750Z,10.50
2018-07-27T22:48:51.117Z,10.20
2018-07-27T22:51:19.090Z,10.33
2018-07-27T22:53:47.280Z,11.23
2018-07-27T22:56:15.566Z,10.10
2018-07-27T22:58:43.790Z,10.23
2018-07-27T23:01:12.426Z,11.60
2018-07-27T23:03:40.698Z,10.50
2018-07-27T23:06:08.877Z,10.50
2018-07-27T23:08:37.062Z,10.93
2018-07-27T23:11:05.343Z,11.37
2018-07-27T23:13:34.035Z,11.40
2018-07-27T23:16:02.275Z,11.00
2018-07-27T23:18:30.511Z,11.70
2018-07-27T23:20:58.734Z,11.40
2018-07-27T23:23:27.010Z,10.80
2018-07-27T23:25:55.190Z,11.27
2018-07-27T23:28:23.466Z,12.77
2018-07-27T23:30:51.687Z,10.70
2018-07-27T23:33:19.932Z,11.07
2018-07-27T23:35:48.163Z,11.53
2018-07-27T23:38:16.466Z,11.40
2018-07-27T23:40:44.748Z,11.80
2018-07-27T23:43:13.931Z,11.20
2018-07-27T23:45:42.278Z,12.27
2018-07-27T23:48:10.623Z,10.77
2018-07-27T23:50:38.927Z,10.30
2018-07-27T23:53:07.323Z,11.47
2018-07-27T23:55:35.545Z,10.33
2018-07-27T23:58:03.860Z,11.33
